sensor_id;sensor_type;location;lat;lon;timestamp;P1;durP1;ratioP1;P2;durP2;ratioP2
6077;SDS011;3067;49.470;10.394;2023-10-08T00:02:08;5.23;;;2.97;;
6077;SDS011;3067;49.470;10.394;2023-10-08T00:04:36;6.77;;;3.07;;
6077;SDS011;3067;49.470;10.394;2023-10-08T00:07:03;8.80;;;3.10;;
6077;SDS011;3067;49.470;10.394;2023-10-08T00:09:33;3.73;;;3.37;;
6077;SDS011;3067;49.470;10.394;2023-10-08T00:12:04;4.27;;;2.70;;
6077;SDS011;3067;49.470;10.394;2023-10-08T00:14:33;12.33;;;3.37;;
6077;SDS011;3067;49.470;10.394;2023-10-08T00:17:09;5.73;;;3.50;;
6077;SDS011;3067;49.470;10.394;2023-10-08T00:19:37;5.33;;;3.33;;
6077;SDS011;3067;49.470;10.394;2023-10-08T00:22:05;9.40;;;3.10;;
6077;SDS011;3067;49.470;10.394;2023-10-08T00:24:33;3.70;;;3.07;;
6077;SDS011;3067;49.470;10.394;2023-10-08T00:27:00;4.13;;;2.90;;
6077;SDS011;3067;49.470;10.394;2023-10-08T00:29:33;4.13;;;2.97;;
6077;SDS011;3067;49.470;10.394;2023-10-08T00:32:04;16.27;;;3.30;;
6077;SDS011;3067;49.470;10.394;2023-10-08T00:34:36;4.37;;;3.17;;
6077;SDS011;3067;49.470;10.394;2023-10-08T00:37:06;3.90;;;3.10;;
6077;SDS011;3067;49.470;10.394;2023-10-08T00:39:35;5.80;;;3.20;;
6077;SDS011;3067;49.470;10.394;2023-10-08T00:42:05;9.20;;;3.13;;
6077;SDS011;3067;49.470;10.394;2023-10-08T00:44:34;14.70;;;3.90;;
6077;SDS011;3067;49.470;10.394;2023-10-08T00:47:06;10.13;;;3.47;;
6077;SDS011;3067;49.470;10.394;2023-10-08T00:49:36;6.50;;;2.80;;
6077;SDS011;3067;49.470;10.394;2023-10-08T00:52:28;6.03;;;3.30;;
6077;SDS011;3067;49.470;10.394;2023-10-08T00:55:04;4.40;;;3.23;;
6077;SDS011;3067;49.470;10.394;2023-10-08T00:57:47;12.53;;;3.17;;
6077;SDS011;3067;49.470;10.394;2023-10-08T01:00:20;3.40;;;3.10;;
6077;SDS011;3067;49.470;10.394;2023-10-08T01:02:48;5.67;;;3.33;;
6077;SDS011;3067;49.470;10.394;2023-10-08T01:05:25;6.80;;;3.00;;
6077;SDS011;3067;49.470;10.394;2023-10-08T01:08:07;6.90;;;3.17;;
6077;SDS011;3067;49.470;10.394;2023-10-08T01:10:37;6.20;;;2.80;;
6077;SDS011;3067;49.470;10.394;2023-10-08T01:13:08;5.27;;;3.10;;
6077;SDS011;3067;49.470;10.394;2023-10-08T01:15:41;4.43;;;2.90;;
6077;SDS011;3067;49.470;10.394;2023-10-08T01:18:10;3.13;;;2.87;;
6077;SDS011;3067;49.470;10.394;2023-10-08T01:20:42;4.83;;;3.20;;
6077;SDS011;3067;49.470;10.394;2023-10-08T01:23:18;10.93;;;3.50;;
6077;SDS011;3067;49.470;10.394;2023-10-08T01:25:48;5.73;;;3.27;;
6077;SDS011;3067;49.470;10.394;2023-10-08T01:28:17;3.93;;;2.93;;
6077;SDS011;3067;49.470;10.394;2023-10-08T01:30:51;5.80;;;3.63;;
6077;SDS011;3067;49.470;10.394;2023-10-08T01:33:20;5.83;;;3.77;;
6077;SDS011;3067;49.470;10.394;2023-10-08T01:35:53;4.10;;;3.10;;
6077;SDS011;3067;49.470;10.394;2023-10-08T01:38:28;3.33;;;2.97;;
6077;SDS011;3067;49.470;10.394;2023-10-08T01:40:56;4.60;;;3.27;;
6077;SDS011;3067;49.470;10.394;2023-10-08T01:43:28;5.90;;;3.33;;
6077;SDS011;3067;49.470;10.394;2023-10-08T01:45:55;4.13;;;3.20;;
6077;SDS011;3067;49.470;10.394;2023-10-08T01:48:22;4.70;;;3.00;;
6077;SDS011;3067;49.470;10.394;2023-10-08T01:51:01;7.03;;;2.90;;
6077;SDS011;3067;49.470;10.394;2023-10-08T01:53:35;4.60;;;3.00;;
6077;SDS011;3067;49.470;10.394;2023-10-08T01:56:03;4.77;;;2.97;;
6077;SDS011;3067;49.470;10.394;2023-10-08T01:58:30;4.00;;;3.00;;
6077;SDS011;3067;49.470;10.394;2023-10-08T02:00:58;5.30;;;3.33;;
6077;SDS011;3067;49.470;10.394;2023-10-08T02:03:26;5.67;;;3.40;;
6077;SDS011;3067;49.470;10.394;2023-10-08T02:05:53;4.53;;;3.00;;
6077;SDS011;3067;49.470;10.394;2023-10-08T02:08:24;11.77;;;3.30;;
6077;SDS011;3067;49.470;10.394;2023-10-08T02:10:53;14.03;;;2.73;;
6077;SDS011;3067;49.470;10.394;2023-10-08T02:13:21;5.13;;;2.83;;
6077;SDS011;3067;49.470;10.394;2023-10-08T02:15:49;2.90;;;2.70;;
6077;SDS011;3067;49.470;10.394;2023-10-08T02:18:17;6.00;;;3.20;;
6077;SDS011;3067;49.470;10.394;2023-10-08T02:20:45;10.33;;;2.83;;
6077;SDS011;3067;49.470;10.394;2023-10-08T02:23:13;5.17;;;3.43;;
6077;SDS011;3067;49.470;10.394;2023-10-08T02:25:40;8.43;;;3.37;;
6077;SDS011;3067;49.470;10.394;2023-10-08T02:28:09;5.10;;;2.93;;
6077;SDS011;3067;49.470;10.394;2023-10-08T02:30:38;5.60;;;3.33;;
6077;SDS011;3067;49.470;10.394;2023-10-08T02:33:05;4.43;;;3.23;;
6077;SDS011;3067;49.470;10.394;2023-10-08T02:35:39;3.57;;;3.03;;
6077;SDS011;3067;49.470;10.394;2023-10-08T02:38:07;9.33;;;3.03;;
6077;SDS011;3067;49.470;10.394;2023-10-08T02:40:37;4.70;;;3.30;;
6077;SDS011;3067;49.470;10.394;2023-10-08T02:43:11;3.70;;;3.40;;
6077;SDS011;3067;49.470;10.394;2023-10-08T02:45:39;4.30;;;3.30;;
6077;SDS011;3067;49.470;10.394;2023-10-08T02:48:07;4.43;;;2.70;;
6077;SDS011;3067;49.470;10.394;2023-10-08T02:50:37;16.03;;;4.20;;
6077;SDS011;3067;49.470;10.394;2023-10-08T02:53:05;8.40;;;3.50;;
6077;SDS011;3067;49.470;10.394;2023-10-08T02:55:36;5.97;;;3.10;;
6077;SDS011;3067;49.470;10.394;2023-10-08T02:58:09;12.30;;;3.23;;
6077;SDS011;3067;49.470;10.394;2023-10-08T03:00:39;6.33;;;3.20;;
6077;SDS011;3067;49.470;10.394;2023-10-08T03:03:07;5.10;;;3.00;;
6077;SDS011;3067;49.470;10.394;2023-10-08T03:05:41;7.33;;;3.80;;
6077;SDS011;3067;49.470;10.394;2023-10-08T03:08:11;4.03;;;3.30;;
6077;SDS011;3067;49.470;10.394;2023-10-08T03:10:38;7.30;;;3.23;;
6077;SDS011;3067;49.470;10.394;2023-10-08T03:13:06;7.20;;;3.27;;
6077;SDS011;3067;49.470;10.394;2023-10-08T03:15:40;5.17;;;3.40;;
6077;SDS011;3067;49.470;10.394;2023-10-08T03:18:11;6.73;;;3.50;;
6077;SDS011;3067;49.470;10.394;2023-10-08T03:20:39;5.10;;;3.40;;
6077;SDS011;3067;49.470;10.394;2023-10-08T03:23:10;4.67;;;3.03;;
6077;SDS011;3067;49.470;10.394;2023-10-08T03:25:50;7.30;;;3.40;;
6077;SDS011;3067;49.470;10.394;2023-10-08T03:28:22;6.80;;;3.60;;
6077;SDS011;3067;49.470;10.394;2023-10-08T03:30:54;6.67;;;3.67;;
6077;SDS011;3067;49.470;10.394;2023-10-08T03:33:29;8.40;;;2.90;;
6077;SDS011;3067;49.470;10.394;2023-10-08T03:35:59;3.53;;;3.10;;
6077;SDS011;3067;49.470;10.394;2023-10-08T03:38:34;3.87;;;3.50;;
6077;SDS011;3067;49.470;10.394;2023-10-08T03:41:15;6.10;;;3.30;;
6077;SDS011;3067;49.470;10.394;2023-10-08T03:43:43;4.93;;;3.03;;
6077;SDS011;3067;49.470;10.394;2023-10-08T03:46:20;4.20;;;3.60;;
6077;SDS011;3067;49.470;10.394;2023-10-08T03:48:49;5.83;;;3.67;;
6077;SDS011;3067;49.470;10.394;2023-10-08T03:51:17;3.40;;;3.10;;
6077;SDS011;3067;49.470;10.394;2023-10-08T03:53:46;3.50;;;3.03;;
6077;SDS011;3067;49.470;10.394;2023-10-08T03:56:40;5.33;;;3.40;;
6077;SDS011;3067;49.470;10.394;2023-10-08T03:59:11;3.90;;;3.33;;
6077;SDS011;3067;49.470;10.394;2023-10-08T04:01:41;9.03;;;3.23;;
6077;SDS011;3067;49.470;10.394;2023-10-08T04:04:08;3.33;;;3.03;;
6077;SDS011;3067;49.470;10.394;2023-10-08T04:06:39;5.00;;;3.57;;
6077;SDS011;3067;49.470;10.394;2023-10-08T04:09:13;6.10;;;3.50;;
6077;SDS011;3067;49.470;10.394;2023-10-08T04:11:49;11.10;;;3.63;;
6077;SDS011;3067;49.470;10.394;2023-10-08T04:14:21;5.20;;;3.67;;
6077;SDS011;3067;49.470;10.394;2023-10-08T04:16:52;5.40;;;3.37;;
6077;SDS011;3067;49.470;10.394;2023-10-08T04:19:19;7.33;;;3.67;;
6077;SDS011;3067;49.470;10.394;2023-10-08T04:21:52;7.13;;;3.63;;
6077;SDS011;3067;49.470;10.394;2023-10-08T04:24:23;4.23;;;3.50;;
6077;SDS011;3067;49.470;10.394;2023-10-08T04:26:59;9.47;;;3.37;;
6077;SDS011;3067;49.470;10.394;2023-10-08T04:29:28;5.03;;;3.30;;
6077;SDS011;3067;49.470;10.394;2023-10-08T04:31:59;5.90;;;3.53;;
6077;SDS011;3067;49.470;10.394;2023-10-08T04:34:37;8.90;;;3.50;;
6077;SDS011;3067;49.470;10.394;2023-10-08T04:37:09;7.20;;;4.50;;
6077;SDS011;3067;49.470;10.394;2023-10-08T04:39:38;11.33;;;7.20;;
6077;SDS011;3067;49.470;10.394;2023-10-08T04:42:11;15.77;;;7.70;;
6077;SDS011;3067;49.470;10.394;2023-10-08T04:44:40;11.60;;;4.10;;
6077;SDS011;3067;49.470;10.394;2023-10-08T04:47:08;6.87;;;4.27;;
6077;SDS011;3067;49.470;10.394;2023-10-08T04:49:56;8.07;;;3.30;;
6077;SDS011;3067;49.470;10.394;2023-10-08T04:52:23;7.33;;;3.63;;
6077;SDS011;3067;49.470;10.394;2023-10-08T04:54:50;7.60;;;3.50;;
6077;SDS011;3067;49.470;10.394;2023-10-08T04:57:19;6.40;;;3.53;;
6077;SDS011;3067;49.470;10.394;2023-10-08T04:59:48;7.37;;;3.63;;
6077;SDS011;3067;49.470;10.394;2023-10-08T05:02:18;4.77;;;3.50;;
6077;SDS011;3067;49.470;10.394;2023-10-08T05:04:45;5.53;;;3.30;;
6077;SDS011;3067;49.470;10.394;2023-10-08T05:07:22;7.17;;;3.27;;
6077;SDS011;3067;49.470;10.394;2023-10-08T05:10:03;6.47;;;3.63;;
6077;SDS011;3067;49.470;10.394;2023-10-08T05:12:55;7.53;;;3.90;;
6077;SDS011;3067;49.470;10.394;2023-10-08T05:15:40;9.67;;;4.50;;
6077;SDS011;3067;49.470;10.394;2023-10-08T05:18:16;7.10;;;3.00;;
6077;SDS011;3067;49.470;10.394;2023-10-08T05:20:49;5.03;;;3.67;;
6077;SDS011;3067;49.470;10.394;2023-10-08T05:23:48;8.00;;;3.63;;
6077;SDS011;3067;49.470;10.394;2023-10-08T05:26:35;7.63;;;3.97;;
6077;SDS011;3067;49.470;10.394;2023-10-08T05:29:10;5.43;;;3.97;;
6077;SDS011;3067;49.470;10.394;2023-10-08T05:32:17;4.47;;;3.50;;
6077;SDS011;3067;49.470;10.394;2023-10-08T05:35:05;5.47;;;3.30;;
6077;SDS011;3067;49.470;10.394;2023-10-08T05:37:50;9.50;;;4.00;;
6077;SDS011;3067;49.470;10.394;2023-10-08T05:40:27;4.93;;;3.70;;
6077;SDS011;3067;49.470;10.394;2023-10-08T05:43:08;5.50;;;3.97;;
6077;SDS011;3067;49.470;10.394;2023-10-08T05:45:58;5.07;;;3.50;;
6077;SDS011;3067;49.470;10.394;2023-10-08T05:48:45;5.60;;;3.40;;
6077;SDS011;3067;49.470;10.394;2023-10-08T05:51:27;7.93;;;4.00;;
6077;SDS011;3067;49.470;10.394;2023-10-08T05:54:09;9.30;;;3.90;;
6077;SDS011;3067;49.470;10.394;2023-10-08T05:56:50;6.97;;;4.13;;
6077;SDS011;3067;49.470;10.394;2023-10-08T05:59:31;5.73;;;3.60;;
6077;SDS011;3067;49.470;10.394;2023-10-08T06:02:04;4.77;;;3.73;;
6077;SDS011;3067;49.470;10.394;2023-10-08T06:04:51;7.90;;;3.83;;
6077;SDS011;3067;49.470;10.394;2023-10-08T06:07:37;13.30;;;3.50;;
6077;SDS011;3067;49.470;10.394;2023-10-08T06:10:13;5.33;;;3.03;;
6077;SDS011;3067;49.470;10.394;2023-10-08T06:13:07;10.53;;;3.77;;
6077;SDS011;3067;49.470;10.394;2023-10-08T06:15:39;9.30;;;3.57;;
6077;SDS011;3067;49.470;10.394;2023-10-08T06:18:13;6.03;;;3.60;;
6077;SDS011;3067;49.470;10.394;2023-10-08T06:20:40;9.63;;;3.27;;
6077;SDS011;3067;49.470;10.394;2023-10-08T06:23:11;8.87;;;3.43;;
6077;SDS011;3067;49.470;10.394;2023-10-08T06:25:41;5.57;;;3.70;;
6077;SDS011;3067;49.470;10.394;2023-10-08T06:28:13;7.17;;;3.70;;
6077;SDS011;3067;49.470;10.394;2023-10-08T06:30:44;4.27;;;3.87;;
6077;SDS011;3067;49.470;10.394;2023-10-08T06:33:11;3.63;;;3.30;;
6077;SDS011;3067;49.470;10.394;2023-10-08T06:35:38;5.33;;;3.90;;
6077;SDS011;3067;49.470;10.394;2023-10-08T06:38:11;12.20;;;3.97;;
6077;SDS011;3067;49.470;10.394;2023-10-08T06:40:40;6.60;;;3.50;;
6077;SDS011;3067;49.470;10.394;2023-10-08T06:43:09;4.63;;;3.57;;
6077;SDS011;3067;49.470;10.394;2023-10-08T06:45:47;7.50;;;4.17;;
6077;SDS011;3067;49.470;10.394;2023-10-08T06:48:17;10.00;;;3.83;;
6077;SDS011;3067;49.470;10.394;2023-10-08T06:50:45;6.90;;;3.67;;
6077;SDS011;3067;49.470;10.394;2023-10-08T06:53:15;10.90;;;3.70;;
6077;SDS011;3067;49.470;10.394;2023-10-08T06:55:43;4.73;;;3.90;;
6077;SDS011;3067;49.470;10.394;2023-10-08T06:58:13;6.00;;;3.50;;
6077;SDS011;3067;49.470;10.394;2023-10-08T07:00:42;9.77;;;3.40;;
6077;SDS011;3067;49.470;10.394;2023-10-08T07:03:14;5.70;;;3.83;;
6077;SDS011;3067;49.470;10.394;2023-10-08T07:05:43;3.57;;;3.27;;
6077;SDS011;3067;49.470;10.394;2023-10-08T07:08:21;5.37;;;3.60;;
6077;SDS011;3067;49.470;10.394;2023-10-08T07:10:49;6.37;;;4.13;;
6077;SDS011;3067;49.470;10.394;2023-10-08T07:13:17;7.33;;;3.33;;
6077;SDS011;3067;49.470;10.394;2023-10-08T07:15:47;7.60;;;3.93;;
6077;SDS011;3067;49.470;10.394;2023-10-08T07:18:15;6.77;;;3.90;;
6077;SDS011;3067;49.470;10.394;2023-10-08T07:20:50;3.90;;;3.57;;
6077;SDS011;3067;49.470;10.394;2023-10-08T07:23:19;5.90;;;3.60;;
6077;SDS011;3067;49.470;10.394;2023-10-08T07:25:52;10.13;;;3.20;;
6077;SDS011;3067;49.470;10.394;2023-10-08T07:28:23;5.50;;;3.80;;
6077;SDS011;3067;49.470;10.394;2023-10-08T07:30:51;6.03;;;3.70;;
6077;SDS011;3067;49.470;10.394;2023-10-08T07:33:20;7.37;;;3.50;;
6077;SDS011;3067;49.470;10.394;2023-10-08T07:35:50;4.50;;;3.87;;
6077;SDS011;3067;49.470;10.394;2023-10-08T07:38:24;5.57;;;3.90;;
6077;SDS011;3067;49.470;10.394;2023-10-08T07:40:54;9.53;;;4.27;;
6077;SDS011;3067;49.470;10.394;2023-10-08T07:43:22;9.33;;;4.13;;
6077;SDS011;3067;49.470;10.394;2023-10-08T07:45:49;8.93;;;3.77;;
6077;SDS011;3067;49.470;10.394;2023-10-08T07:48:19;7.53;;;4.00;;
6077;SDS011;3067;49.470;10.394;2023-10-08T07:50:49;4.93;;;4.13;;
6077;SDS011;3067;49.470;10.394;2023-10-08T07:53:16;6.97;;;4.00;;
6077;SDS011;3067;49.470;10.394;2023-10-08T07:55:47;6.93;;;3.70;;
6077;SDS011;3067;49.470;10.394;2023-10-08T07:58:15;6.43;;;4.33;;
6077;SDS011;3067;49.470;10.394;2023-10-08T08:00:42;7.00;;;3.63;;
6077;SDS011;3067;49.470;10.394;2023-10-08T08:03:19;7.53;;;3.40;;
6077;SDS011;3067;49.470;10.394;2023-10-08T08:05:47;5.07;;;4.00;;
6077;SDS011;3067;49.470;10.394;2023-10-08T08:08:18;4.73;;;3.50;;
6077;SDS011;3067;49.470;10.394;2023-10-08T08:10:49;10.23;;;3.70;;
6077;SDS011;3067;49.470;10.394;2023-10-08T08:13:23;4.17;;;3.73;;
6077;SDS011;3067;49.470;10.394;2023-10-08T08:15:53;5.60;;;4.00;;
6077;SDS011;3067;49.470;10.394;2023-10-08T08:18:23;6.73;;;3.93;;
6077;SDS011;3067;49.470;10.394;2023-10-08T08:20:58;7.93;;;3.57;;
6077;SDS011;3067;49.470;10.394;2023-10-08T08:23:27;6.87;;;4.17;;
6077;SDS011;3067;49.470;10.394;2023-10-08T08:25:57;5.33;;;3.63;;
6077;SDS011;3067;49.470;10.394;2023-10-08T08:28:36;5.23;;;3.70;;
6077;SDS011;3067;49.470;10.394;2023-10-08T08:31:04;7.73;;;4.47;;
6077;SDS011;3067;49.470;10.394;2023-10-08T08:33:38;5.57;;;3.87;;
6077;SDS011;3067;49.470;10.394;2023-10-08T08:36:19;6.90;;;3.90;;
6077;SDS011;3067;49.470;10.394;2023-10-08T08:38:47;7.03;;;3.63;;
6077;SDS011;3067;49.470;10.394;2023-10-08T08:41:16;11.10;;;5.37;;
6077;SDS011;3067;49.470;10.394;2023-10-08T08:43:46;5.40;;;3.80;;
6077;SDS011;3067;49.470;10.394;2023-10-08T08:46:14;8.37;;;4.00;;
6077;SDS011;3067;49.470;10.394;2023-10-08T08:48:42;8.90;;;4.10;;
6077;SDS011;3067;49.470;10.394;2023-10-08T08:51:14;6.63;;;4.77;;
6077;SDS011;3067;49.470;10.394;2023-10-08T08:53:41;9.77;;;4.70;;
6077;SDS011;3067;49.470;10.394;2023-10-08T08:56:08;8.80;;;6.13;;
6077;SDS011;3067;49.470;10.394;2023-10-08T08:58:39;9.90;;;6.30;;
6077;SDS011;3067;49.470;10.394;2023-10-08T09:01:07;12.00;;;8.77;;
6077;SDS011;3067;49.470;10.394;2023-10-08T09:03:39;8.30;;;4.50;;
6077;SDS011;3067;49.470;10.394;2023-10-08T09:06:06;9.20;;;4.40;;
6077;SDS011;3067;49.470;10.394;2023-10-08T09:08:33;9.00;;;5.00;;
6077;SDS011;3067;49.470;10.394;2023-10-08T09:11:01;7.40;;;4.17;;
6077;SDS011;3067;49.470;10.394;2023-10-08T09:13:29;8.33;;;4.23;;
6077;SDS011;3067;49.470;10.394;2023-10-08T09:16:03;14.70;;;4.03;;
6077;SDS011;3067;49.470;10.394;2023-10-08T09:18:34;10.97;;;3.93;;
6077;SDS011;3067;49.470;10.394;2023-10-08T09:21:10;9.90;;;3.90;;
6077;SDS011;3067;49.470;10.394;2023-10-08T09:23:41;7.80;;;4.60;;
6077;SDS011;3067;49.470;10.394;2023-10-08T09:26:12;8.10;;;4.07;;
6077;SDS011;3067;49.470;10.394;2023-10-08T09:28:40;8.17;;;4.03;;
6077;SDS011;3067;49.470;10.394;2023-10-08T09:31:13;10.40;;;4.10;;
6077;SDS011;3067;49.470;10.394;2023-10-08T09:33:42;4.40;;;3.70;;
6077;SDS011;3067;49.470;10.394;2023-10-08T09:36:10;8.93;;;4.20;;
6077;SDS011;3067;49.470;10.394;2023-10-08T09:38:44;7.57;;;3.70;;
6077;SDS011;3067;49.470;10.394;2023-10-08T09:41:14;7.80;;;4.10;;
6077;SDS011;3067;49.470;10.394;2023-10-08T09:43:41;6.40;;;4.00;;
6077;SDS011;3067;49.470;10.394;2023-10-08T09:46:15;7.40;;;4.20;;
6077;SDS011;3067;49.470;10.394;2023-10-08T09:48:48;5.73;;;4.23;;
6077;SDS011;3067;49.470;10.394;2023-10-08T09:51:18;8.93;;;4.43;;
6077;SDS011;3067;49.470;10.394;2023-10-08T09:53:51;6.80;;;4.20;;
6077;SDS011;3067;49.470;10.394;2023-10-08T09:56:23;5.30;;;3.90;;
6077;SDS011;3067;49.470;10.394;2023-10-08T09:58:55;5.17;;;4.20;;
6077;SDS011;3067;49.470;10.394;2023-10-08T10:01:23;9.50;;;3.80;;
6077;SDS011;3067;49.470;10.394;2023-10-08T10:03:51;8.63;;;4.07;;
6077;SDS011;3067;49.470;10.394;2023-10-08T10:06:18;10.43;;;3.80;;
6077;SDS011;3067;49.470;10.394;2023-10-08T10:08:47;14.10;;;4.07;;
6077;SDS011;3067;49.470;10.394;2023-10-08T10:11:15;7.70;;;3.73;;
6077;SDS011;3067;49.470;10.394;2023-10-08T10:13:42;9.60;;;3.97;;
6077;SDS011;3067;49.470;10.394;2023-10-08T10:16:13;9.30;;;3.93;;
6077;SDS011;3067;49.470;10.394;2023-10-08T10:18:46;15.77;;;4.20;;
6077;SDS011;3067;49.470;10.394;2023-10-08T10:21:25;7.37;;;4.20;;
6077;SDS011;3067;49.470;10.394;2023-10-08T10:23:58;5.57;;;3.63;;
6077;SDS011;3067;49.470;10.394;2023-10-08T10:26:26;8.50;;;4.30;;
6077;SDS011;3067;49.470;10.394;2023-10-08T10:31:45;11.23;;;4.27;;
6077;SDS011;3067;49.470;10.394;2023-10-08T10:34:15;4.00;;;3.60;;
6077;SDS011;3067;49.470;10.394;2023-10-08T10:36:44;7.37;;;4.60;;
6077;SDS011;3067;49.470;10.394;2023-10-08T10:39:14;9.60;;;4.40;;
6077;SDS011;3067;49.470;10.394;2023-10-08T10:41:43;10.20;;;4.07;;
6077;SDS011;3067;49.470;10.394;2023-10-08T10:44:11;15.13;;;4.47;;
6077;SDS011;3067;49.470;10.394;2023-10-08T10:46:40;15.60;;;4.00;;
6077;SDS011;3067;49.470;10.394;2023-10-08T10:49:08;5.87;;;3.80;;
6077;SDS011;3067;49.470;10.394;2023-10-08T10:51:45;8.07;;;4.50;;
6077;SDS011;3067;49.470;10.394;2023-10-08T10:54:17;12.17;;;5.20;;
6077;SDS011;3067;49.470;10.394;2023-10-08T10:56:46;12.23;;;4.00;;
6077;SDS011;3067;49.470;10.394;2023-10-08T10:59:24;7.60;;;4.30;;
6077;SDS011;3067;49.470;10.394;2023-10-08T11:01:53;8.07;;;4.80;;
6077;SDS011;3067;49.470;10.394;2023-10-08T11:04:32;6.53;;;4.30;;
6077;SDS011;3067;49.470;10.394;2023-10-08T11:07:12;8.73;;;4.00;;
6077;SDS011;3067;49.470;10.394;2023-10-08T11:09:41;12.93;;;4.13;;
6077;SDS011;3067;49.470;10.394;2023-10-08T11:12:10;6.30;;;4.60;;
6077;SDS011;3067;49.470;10.394;2023-10-08T11:14:43;12.50;;;4.80;;
6077;SDS011;3067;49.470;10.394;2023-10-08T11:17:13;9.07;;;4.50;;
6077;SDS011;3067;49.470;10.394;2023-10-08T11:19:42;12.53;;;4.53;;
6077;SDS011;3067;49.470;10.394;2023-10-08T11:22:13;8.83;;;3.90;;
6077;SDS011;3067;49.470;10.394;2023-10-08T11:24:43;11.00;;;4.10;;
6077;SDS011;3067;49.470;10.394;2023-10-08T11:27:13;12.70;;;4.63;;
6077;SDS011;3067;49.470;10.394;2023-10-08T11:29:53;13.80;;;5.00;;
6077;SDS011;3067;49.470;10.394;2023-10-08T11:32:23;17.57;;;8.20;;
6077;SDS011;3067;49.470;10.394;2023-10-08T11:34:54;15.37;;;5.27;;
6077;SDS011;3067;49.470;10.394;2023-10-08T11:37:28;8.87;;;4.07;;
6077;SDS011;3067;49.470;10.394;2023-10-08T11:39:59;5.63;;;3.83;;
6077;SDS011;3067;49.470;10.394;2023-10-08T11:42:34;15.77;;;5.00;;
6077;SDS011;3067;49.470;10.394;2023-10-08T11:45:09;10.43;;;4.20;;
6077;SDS011;3067;49.470;10.394;2023-10-08T11:47:49;8.37;;;4.33;;
6077;SDS011;3067;49.470;10.394;2023-10-08T11:50:22;11.03;;;4.20;;
6077;SDS011;3067;49.470;10.394;2023-10-08T11:52:57;4.43;;;3.93;;
6077;SDS011;3067;49.470;10.394;2023-10-08T11:55:28;8.57;;;4.23;;
6077;SDS011;3067;49.470;10.394;2023-10-08T11:57:55;14.40;;;4.40;;
6077;SDS011;3067;49.470;10.394;2023-10-08T12:00:22;6.07;;;4.27;;
6077;SDS011;3067;49.470;10.394;2023-10-08T12:02:52;6.90;;;4.30;;
6077;SDS011;3067;49.470;10.394;2023-10-08T12:05:20;8.63;;;4.33;;
6077;SDS011;3067;49.470;10.394;2023-10-08T12:07:49;6.90;;;4.20;;
6077;SDS011;3067;49.470;10.394;2023-10-08T12:10:19;16.17;;;3.97;;
6077;SDS011;3067;49.470;10.394;2023-10-08T12:12:49;6.50;;;4.13;;
6077;SDS011;3067;49.470;10.394;2023-10-08T12:15:17;10.67;;;4.90;;
6077;SDS011;3067;49.470;10.394;2023-10-08T12:17:49;13.83;;;3.87;;
6077;SDS011;3067;49.470;10.394;2023-10-08T12:20:36;8.50;;;4.90;;
6077;SDS011;3067;49.470;10.394;2023-10-08T12:23:04;14.63;;;4.63;;
6077;SDS011;3067;49.470;10.394;2023-10-08T12:25:33;7.10;;;4.00;;
6077;SDS011;3067;49.470;10.394;2023-10-08T13:30:32;9.80;;;5.00;;
6077;SDS011;3067;49.470;10.394;2023-10-08T13:33:00;11.70;;;4.83;;
6077;SDS011;3067;49.470;10.394;2023-10-08T13:35:27;5.57;;;4.50;;
6077;SDS011;3067;49.470;10.394;2023-10-08T13:37:54;14.87;;;4.60;;
6077;SDS011;3067;49.470;10.394;2023-10-08T13:40:21;8.70;;;5.00;;
6077;SDS011;3067;49.470;10.394;2023-10-08T13:42:57;10.97;;;5.13;;
6077;SDS011;3067;49.470;10.394;2023-10-08T13:45:24;9.17;;;4.30;;
6077;SDS011;3067;49.470;10.394;2023-10-08T13:47:55;9.07;;;4.60;;
6077;SDS011;3067;49.470;10.394;2023-10-08T13:50:24;6.43;;;4.33;;
6077;SDS011;3067;49.470;10.394;2023-10-08T13:52:55;9.60;;;4.90;;
6077;SDS011;3067;49.470;10.394;2023-10-08T13:55:23;7.90;;;4.63;;
6077;SDS011;3067;49.470;10.394;2023-10-08T13:57:50;9.67;;;4.60;;
6077;SDS011;3067;49.470;10.394;2023-10-08T14:00:19;8.90;;;4.40;;
6077;SDS011;3067;49.470;10.394;2023-10-08T14:02:51;10.90;;;4.87;;
6077;SDS011;3067;49.470;10.394;2023-10-08T14:05:19;5.73;;;4.63;;
6077;SDS011;3067;49.470;10.394;2023-10-08T14:07:49;7.43;;;4.50;;
6077;SDS011;3067;49.470;10.394;2023-10-08T14:10:18;12.67;;;4.97;;
6077;SDS011;3067;49.470;10.394;2023-10-08T14:12:45;8.67;;;4.87;;
6077;SDS011;3067;49.470;10.394;2023-10-08T14:15:15;6.37;;;4.40;;
6077;SDS011;3067;49.470;10.394;2023-10-08T14:17:43;11.37;;;5.10;;
6077;SDS011;3067;49.470;10.394;2023-10-08T14:20:13;15.10;;;5.13;;
6077;SDS011;3067;49.470;10.394;2023-10-08T14:22:48;10.10;;;5.13;;
6077;SDS011;3067;49.470;10.394;2023-10-08T14:25:22;11.37;;;5.37;;
6077;SDS011;3067;49.470;10.394;2023-10-08T14:27:53;13.77;;;5.70;;
6077;SDS011;3067;49.470;10.394;2023-10-08T14:30:29;17.30;;;6.53;;
6077;SDS011;3067;49.470;10.394;2023-10-08T14:32:58;14.13;;;6.03;;
6077;SDS011;3067;49.470;10.394;2023-10-08T14:35:28;9.80;;;5.80;;
6077;SDS011;3067;49.470;10.394;2023-10-08T14:38:23;11.10;;;6.00;;
6077;SDS011;3067;49.470;10.394;2023-10-08T14:41:07;14.87;;;5.90;;
6077;SDS011;3067;49.470;10.394;2023-10-08T14:43:51;13.10;;;6.30;;
6077;SDS011;3067;49.470;10.394;2023-10-08T14:46:18;17.33;;;6.87;;
6077;SDS011;3067;49.470;10.394;2023-10-08T14:48:45;13.60;;;6.53;;
6077;SDS011;3067;49.470;10.394;2023-10-08T14:51:14;7.40;;;5.70;;
6077;SDS011;3067;49.470;10.394;2023-10-08T14:53:45;11.27;;;6.00;;
6077;SDS011;3067;49.470;10.394;2023-10-08T14:56:12;11.43;;;6.10;;
6077;SDS011;3067;49.470;10.394;2023-10-08T14:58:40;8.33;;;5.77;;
6077;SDS011;3067;49.470;10.394;2023-10-08T15:01:08;9.90;;;5.20;;
6077;SDS011;3067;49.470;10.394;2023-10-08T15:03:38;11.60;;;5.93;;
6077;SDS011;3067;49.470;10.394;2023-10-08T15:06:05;9.73;;;5.27;;
6077;SDS011;3067;49.470;10.394;2023-10-08T15:08:35;10.43;;;5.60;;
6077;SDS011;3067;49.470;10.394;2023-10-08T15:11:05;15.30;;;6.07;;
6077;SDS011;3067;49.470;10.394;2023-10-08T15:13:35;9.00;;;5.93;;
6077;SDS011;3067;49.470;10.394;2023-10-08T15:16:04;14.50;;;6.43;;
6077;SDS011;3067;49.470;10.394;2023-10-08T15:18:31;13.40;;;6.10;;
6077;SDS011;3067;49.470;10.394;2023-10-08T15:21:07;12.93;;;5.57;;
6077;SDS011;3067;49.470;10.394;2023-10-08T15:23:34;11.40;;;6.20;;
6077;SDS011;3067;49.470;10.394;2023-10-08T15:26:03;11.50;;;6.20;;
6077;SDS011;3067;49.470;10.394;2023-10-08T15:28:31;12.27;;;5.73;;
6077;SDS011;3067;49.470;10.394;2023-10-08T15:30:58;10.87;;;6.50;;
6077;SDS011;3067;49.470;10.394;2023-10-08T15:33:26;11.90;;;5.80;;
6077;SDS011;3067;49.470;10.394;2023-10-08T15:35:54;15.43;;;6.27;;
6077;SDS011;3067;49.470;10.394;2023-10-08T15:38:21;11.30;;;6.40;;
6077;SDS011;3067;49.470;10.394;2023-10-08T15:40:50;13.10;;;6.40;;
6077;SDS011;3067;49.470;10.394;2023-10-08T15:43:17;12.30;;;6.47;;
6077;SDS011;3067;49.470;10.394;2023-10-08T15:45:45;17.03;;;6.30;;
6077;SDS011;3067;49.470;10.394;2023-10-08T15:48:13;21.70;;;6.40;;
6077;SDS011;3067;49.470;10.394;2023-10-08T15:50:40;13.70;;;6.77;;
6077;SDS011;3067;49.470;10.394;2023-10-08T15:53:07;17.90;;;6.20;;
6077;SDS011;3067;49.470;10.394;2023-10-08T15:55:34;13.73;;;6.00;;
6077;SDS011;3067;49.470;10.394;2023-10-08T15:58:01;10.37;;;5.60;;
6077;SDS011;3067;49.470;10.394;2023-10-08T16:00:28;10.60;;;6.07;;
6077;SDS011;3067;49.470;10.394;2023-10-08T16:02:59;14.73;;;6.20;;
6077;SDS011;3067;49.470;10.394;2023-10-08T16:05:26;9.43;;;5.80;;
6077;SDS011;3067;49.470;10.394;2023-10-08T16:07:53;17.30;;;5.90;;
6077;SDS011;3067;49.470;10.394;2023-10-08T16:10:24;14.63;;;5.50;;
6077;SDS011;3067;49.470;10.394;2023-10-08T16:12:51;13.27;;;6.07;;
6077;SDS011;3067;49.470;10.394;2023-10-08T16:15:18;9.47;;;5.93;;
6077;SDS011;3067;49.470;10.394;2023-10-08T16:17:46;10.17;;;5.70;;
6077;SDS011;3067;49.470;10.394;2023-10-08T16:20:16;13.83;;;6.40;;
6077;SDS011;3067;49.470;10.394;2023-10-08T16:22:45;13.03;;;5.93;;
6077;SDS011;3067;49.470;10.394;2023-10-08T16:25:15;9.17;;;6.17;;
6077;SDS011;3067;49.470;10.394;2023-10-08T16:27:41;12.50;;;6.90;;
6077;SDS011;3067;49.470;10.394;2023-10-08T16:30:13;11.03;;;5.90;;